createdAt,value
2023-03-12T00:02:03.697Z,2.17
2023-03-12T00:04:49.253Z,2.13
2023-03-12T00:07:36.274Z,1.98
2023-03-12T00:10:21.815Z,1.92
2023-03-12T00:13:07.988Z,2.30
2023-03-12T00:15:53.600Z,2.30
2023-03-12T00:18:38.610Z,2.17
2023-03-12T00:21:24.065Z,2.05
2023-03-12T00:24:09.245Z,1.85
2023-03-12T00:26:54.022Z,2.33
2023-03-12T00:29:38.724Z,2.20
2023-03-12T00:32:24.067Z,1.70
2023-03-12T00:35:09.930Z,2.00
2023-03-12T00:37:55.068Z,1.95
2023-03-12T00:40:39.973Z,2.00
2023-03-12T00:43:24.796Z,2.20
2023-03-12T00:46:09.917Z,2.28
2023-03-12T00:48:55.186Z,2.20
2023-03-12T00:51:40.212Z,2.33
2023-03-12T00:54:25.425Z,2.38
2023-03-12T00:57:10.567Z,2.17
2023-03-12T00:59:55.934Z,2.60
2023-03-12T01:02:41.105Z,1.92
2023-03-12T01:05:26.380Z,2.10
2023-03-12T01:08:11.792Z,1.83
2023-03-12T01:10:57.530Z,2.22
2023-03-12T01:13:42.856Z,2.40
2023-03-12T01:16:30.547Z,2.40
2023-03-12T01:19:15.678Z,2.17
2023-03-12T01:22:01.184Z,2.22
2023-03-12T01:24:46.267Z,2.60
2023-03-12T01:27:32.196Z,2.13
2023-03-12T01:30:17.148Z,2.30
2023-03-12T01:33:02.183Z,2.35
2023-03-12T01:35:47.072Z,2.25
2023-03-12T01:38:31.890Z,2.20
2023-03-12T01:41:17.835Z,2.78
2023-03-12T01:44:04.943Z,2.30
2023-03-12T01:46:50.455Z,2.38
2023-03-12T01:49:35.603Z,4.20
2023-03-12T01:52:29.597Z,2.10
2023-03-12T01:55:16.998Z,2.50
2023-03-12T01:58:02.811Z,2.50
2023-03-12T02:00:47.998Z,2.83
2023-03-12T02:03:34.753Z,2.33
2023-03-12T02:06:26.433Z,2.38
2023-03-12T02:09:13.065Z,2.92
2023-03-12T02:11:57.874Z,2.47
2023-03-12T02:14:43.262Z,2.60
2023-03-12T02:17:28.392Z,2.65
2023-03-12T02:20:33.566Z,2.75
2023-03-12T02:23:32.440Z,2.45
2023-03-12T02:26:19.464Z,2.80
2023-03-12T02:29:05.734Z,2.55
2023-03-12T02:31:54.220Z,2.20
2023-03-12T02:34:39.536Z,2.53
2023-03-12T02:37:24.318Z,2.03
2023-03-12T02:40:25.896Z,2.90
2023-03-12T02:43:11.448Z,2.17
2023-03-12T02:45:56.787Z,2.20
2023-03-12T02:48:42.263Z,2.30
2023-03-12T02:51:27.196Z,2.10
2023-03-12T02:54:13.554Z,2.65
2023-03-12T02:56:59.420Z,2.47
2023-03-12T02:59:44.811Z,2.30
2023-03-12T03:02:29.734Z,2.33
2023-03-12T03:05:15.462Z,2.60
2023-03-12T03:08:00.598Z,2.22
2023-03-12T03:10:45.851Z,2.42
2023-03-12T03:13:31.008Z,2.50
2023-03-12T03:16:16.350Z,2.33
2023-03-12T03:19:01.880Z,2.30
2023-03-12T03:21:46.813Z,2.10
2023-03-12T03:24:31.728Z,2.83
2023-03-12T03:27:16.911Z,2.33
2023-03-12T03:30:02.786Z,2.20
2023-03-12T03:32:49.682Z,2.50
2023-03-12T03:35:35.059Z,2.28
2023-03-12T03:38:20.214Z,2.08
2023-03-12T03:41:05.397Z,2.20
2023-03-12T03:43:50.375Z,2.15
2023-03-12T03:46:35.729Z,2.65
2023-03-12T03:49:21.091Z,1.90
2023-03-12T03:52:06.756Z,2.30
2023-03-12T03:54:51.567Z,2.20
2023-03-12T03:57:36.430Z,2.38
2023-03-12T04:00:21.897Z,2.47
2023-03-12T04:03:07.133Z,2.30
2023-03-12T04:05:57.326Z,1.90
2023-03-12T04:08:42.348Z,2.42
2023-03-12T04:11:27.274Z,2.15
2023-03-12T04:14:12.431Z,2.20
2023-03-12T04:16:57.795Z,2.55
2023-03-12T04:19:42.726Z,2.20
2023-03-12T04:22:27.843Z,2.30
2023-03-12T04:25:12.768Z,1.88
2023-03-12T04:27:57.677Z,2.13
2023-03-12T04:30:42.529Z,2.17
2023-03-12T04:33:30.341Z,2.03
2023-03-12T04:36:16.137Z,2.28
2023-03-12T04:39:02.119Z,2.15
2023-03-12T04:41:47.451Z,1.88
2023-03-12T04:44:32.560Z,2.28
2023-03-12T04:47:17.286Z,2.33
2023-03-12T04:50:02.033Z,2.30
2023-03-12T04:52:47.138Z,2.00
2023-03-12T04:55:31.881Z,2.20
2023-03-12T04:58:17.799Z,2.17
2023-03-12T05:01:04.108Z,1.77
2023-03-12T05:03:49.250Z,2.50
2023-03-12T05:06:35.122Z,2.20
2023-03-12T05:09:20.334Z,2.20
2023-03-12T05:12:05.538Z,2.28
2023-03-12T05:14:50.623Z,2.03
2023-03-12T05:17:36.077Z,2.13
2023-03-12T05:20:21.682Z,2.22
2023-03-12T05:23:06.872Z,1.92
2023-03-12T05:25:51.856Z,2.50
2023-03-12T05:28:37.013Z,2.15
2023-03-12T05:31:22.258Z,1.80
2023-03-12T05:34:07.686Z,2.80
2023-03-12T05:36:53.037Z,2.00
2023-03-12T05:39:39.459Z,2.03
2023-03-12T05:42:24.902Z,2.13
2023-03-12T05:45:10.442Z,1.90
2023-03-12T05:47:55.908Z,1.70
2023-03-12T05:50:42.125Z,2.60
2023-03-12T05:53:27.259Z,1.92
2023-03-12T05:56:16.378Z,2.13
2023-03-12T05:59:01.507Z,2.00
2023-03-12T06:01:46.504Z,1.90
2023-03-12T06:04:31.968Z,1.92
2023-03-12T06:07:16.959Z,1.85
2023-03-12T06:10:02.432Z,1.98
2023-03-12T06:12:47.124Z,1.98
2023-03-12T06:15:32.201Z,1.90
2023-03-12T06:18:17.349Z,2.10
2023-03-12T06:21:20.552Z,2.10
2023-03-12T06:24:06.083Z,1.75
2023-03-12T06:26:50.957Z,1.60
2023-03-12T06:29:35.885Z,1.92
2023-03-12T06:32:22.054Z,1.92
2023-03-12T06:35:08.517Z,1.70
2023-03-12T06:37:53.800Z,1.60
2023-03-12T06:40:38.745Z,1.65
2023-03-12T06:43:24.446Z,1.83
2023-03-12T06:46:14.124Z,2.15
2023-03-12T06:48:58.862Z,1.98
2023-03-12T06:51:43.979Z,1.92
2023-03-12T06:54:29.085Z,2.30
2023-03-12T06:57:16.812Z,1.92
2023-03-12T07:00:01.879Z,2.00
2023-03-12T07:02:46.649Z,1.98
2023-03-12T07:05:31.297Z,2.10
2023-03-12T07:08:18.553Z,1.88
2023-03-12T07:11:04.169Z,2.33
2023-03-12T07:13:49.370Z,2.15
2023-03-12T07:16:35.924Z,2.38
2023-03-12T07:19:20.797Z,2.30
2023-03-12T07:22:06.593Z,2.22
2023-03-12T07:24:52.875Z,2.30
2023-03-12T07:27:38.181Z,2.10
2023-03-12T07:30:23.410Z,2.08
2023-03-12T07:33:11.581Z,2.00
2023-03-12T07:35:56.886Z,1.80
2023-03-12T07:38:41.888Z,1.92
2023-03-12T07:41:27.026Z,2.42
2023-03-12T07:44:11.816Z,1.95
2023-03-12T07:46:56.779Z,2.08
2023-03-12T07:49:42.071Z,1.92
2023-03-12T07:52:30.292Z,2.03
2023-03-12T07:55:16.562Z,2.50
2023-03-12T07:58:01.700Z,2.40
2023-03-12T08:00:46.640Z,2.05
2023-03-12T08:03:32.274Z,2.40
2023-03-12T08:06:17.521Z,2.28
2023-03-12T08:09:02.381Z,2.17
2023-03-12T08:11:48.214Z,1.90
2023-03-12T08:14:33.984Z,2.08
2023-03-12T08:17:20.539Z,2.00
2023-03-12T08:20:09.608Z,1.88
2023-03-12T08:22:54.508Z,2.10
2023-03-12T08:25:39.280Z,2.22
2023-03-12T08:28:26.035Z,2.20
2023-03-12T08:31:10.912Z,2.10
2023-03-12T08:33:55.995Z,2.15
2023-03-12T08:36:40.847Z,1.98
2023-03-12T08:39:26.186Z,2.58
2023-03-12T08:42:11.774Z,1.73
2023-03-12T08:44:56.768Z,2.38
2023-03-12T08:47:43.420Z,1.90
2023-03-12T08:50:30.750Z,2.22
2023-03-12T08:53:15.594Z,1.73
2023-03-12T08:56:01.345Z,1.98
2023-03-12T08:58:46.523Z,1.80
2023-03-12T09:01:31.597Z,1.75
2023-03-12T09:04:17.192Z,1.67
2023-03-12T09:07:02.161Z,1.60
2023-03-12T09:09:47.028Z,1.48
2023-03-12T09:12:32.269Z,1.33
2023-03-12T09:15:18.281Z,1.75
2023-03-12T09:18:03.714Z,1.58
2023-03-12T09:20:49.118Z,2.08
2023-03-12T09:23:34.182Z,1.40
2023-03-12T09:26:18.994Z,1.50
2023-03-12T09:29:04.484Z,1.42
2023-03-12T09:31:49.644Z,2.63
2023-03-12T09:34:35.206Z,1.30
2023-03-12T09:37:23.589Z,1.50
2023-03-12T09:40:16.734Z,1.55
2023-03-12T09:43:06.417Z,1.48
2023-03-12T09:45:51.749Z,1.48
2023-03-12T09:48:37.772Z,1.60
2023-03-12T09:51:41.022Z,1.58
2023-03-12T09:54:41.642Z,1.55
2023-03-12T09:57:29.798Z,2.13
2023-03-12T10:00:21.654Z,1.35
2023-03-12T10:03:35.476Z,1.20
2023-03-12T10:06:24.754Z,1.30
2023-03-12T10:09:33.947Z,1.35
2023-03-12T10:12:30.936Z,1.30
2023-03-12T10:15:48.955Z,1.17
2023-03-12T10:18:53.033Z,1.55
2023-03-12T10:22:11.111Z,1.27
2023-03-12T10:25:11.086Z,1.40
2023-03-12T10:30:54.213Z,1.05
2023-03-12T10:33:48.083Z,1.42
2023-03-12T10:36:39.775Z,1.30
2023-03-12T10:39:24.844Z,1.30
2023-03-12T10:42:30.345Z,1.20
2023-03-12T10:45:37.741Z,1.30
2023-03-12T10:48:26.058Z,1.42
2023-03-12T10:51:12.920Z,1.50
2023-03-12T10:53:58.117Z,1.50
2023-03-12T10:56:51.164Z,1.60
2023-03-12T10:59:42.958Z,1.67
2023-03-12T11:02:33.027Z,1.30
2023-03-12T11:05:37.559Z,1.35
2023-03-12T11:08:34.412Z,1.65
2023-03-12T11:11:33.074Z,1.60
2023-03-12T11:14:25.072Z,1.17
2023-03-12T11:17:21.801Z,1.45
2023-03-12T11:20:27.483Z,1.77
2023-03-12T11:23:31.676Z,1.80
2023-03-12T11:26:20.910Z,1.50
2023-03-12T11:29:17.206Z,1.55
2023-03-12T11:32:21.453Z,1.63
2023-03-12T11:35:11.942Z,1.70
2023-03-12T11:38:17.625Z,1.90
2023-03-12T11:41:43.274Z,1.70
2023-03-12T11:44:57.575Z,1.70
2023-03-12T11:48:15.982Z,1.63
2023-03-12T11:51:06.780Z,1.67
2023-03-12T11:54:04.099Z,1.90
2023-03-12T11:56:53.151Z,1.63
2023-03-12T11:59:47.328Z,1.90
2023-03-12T12:06:05.071Z,1.75
2023-03-12T12:09:07.013Z,1.60
2023-03-12T12:12:21.089Z,1.63
2023-03-12T12:15:18.384Z,1.42
2023-03-12T12:18:19.152Z,1.10
2023-03-12T12:21:37.578Z,1.10
2023-03-12T12:24:39.272Z,1.40
2023-03-12T12:27:29.068Z,1.20
2023-03-12T12:31:19.827Z,1.25
2023-03-12T12:34:26.649Z,1.42
2023-03-12T12:40:12.427Z,1.23
2023-03-12T12:43:16.393Z,1.20
2023-03-12T12:46:09.706Z,1.45
2023-03-12T12:48:57.245Z,1.40
2023-03-12T12:51:47.743Z,1.55
2023-03-12T12:55:13.217Z,1.55
2023-03-12T12:58:11.405Z,1.75
2023-03-12T13:01:01.302Z,1.27
2023-03-12T13:03:48.715Z,1.45
2023-03-12T13:07:17.404Z,1.50
2023-03-12T13:10:06.779Z,1.45
2023-03-12T13:12:56.599Z,2.17
2023-03-12T13:15:44.149Z,1.55
2023-03-12T13:18:31.629Z,1.30
2023-03-12T13:21:28.242Z,1.50
2023-03-12T13:24:43.327Z,2.10
2023-03-12T13:27:37.803Z,2.08
2023-03-12T13:30:35.140Z,2.05
2023-03-12T13:33:39.033Z,1.60
2023-03-12T13:36:30.032Z,1.60
2023-03-12T13:39:15.190Z,1.55
2023-03-12T13:42:25.093Z,1.95
2023-03-12T13:45:28.745Z,1.48
2023-03-12T13:48:23.041Z,2.28
2023-03-12T13:51:17.808Z,2.00
2023-03-12T13:54:06.593Z,1.65
2023-03-12T13:57:04.406Z,2.10
2023-03-12T13:59:51.192Z,1.85
2023-03-12T14:02:45.100Z,1.80
2023-03-12T14:05:55.253Z,1.80
2023-03-12T14:08:59.270Z,2.42
2023-03-12T14:12:06.009Z,1.60
2023-03-12T14:15:13.761Z,2.00
2023-03-12T14:18:03.267Z,1.95
2023-03-12T14:21:06.917Z,1.77
2023-03-12T14:23:57.015Z,2.08
2023-03-12T14:26:47.857Z,2.30
2023-03-12T14:29:41.165Z,2.13
2023-03-12T14:32:32.171Z,2.05
2023-03-12T14:35:23.509Z,2.10
2023-03-12T14:38:18.753Z,2.20
2023-03-12T14:41:14.330Z,1.92
2023-03-12T14:44:07.079Z,2.10
2023-03-12T14:47:01.336Z,2.15
2023-03-12T14:52:34.176Z,2.33
2023-03-12T14:55:27.768Z,2.40
2023-03-12T14:58:19.836Z,2.60
2023-03-12T15:01:08.625Z,2.45
2023-03-12T15:03:58.090Z,2.78
2023-03-12T15:06:46.916Z,2.60
2023-03-12T15:09:37.776Z,2.22
2023-03-12T15:12:35.169Z,2.63
2023-03-12T15:15:43.907Z,3.03
2023-03-12T15:18:31.662Z,2.50
2023-03-12T15:21:17.541Z,3.10
2023-03-12T15:24:03.449Z,2.67
2023-03-12T15:26:48.493Z,2.55
2023-03-12T15:29:35.957Z,2.80
2023-03-12T15:32:24.952Z,2.72
2023-03-12T15:35:15.021Z,2.80
2023-03-12T15:38:02.423Z,2.72
2023-03-12T15:41:02.738Z,2.90
2023-03-12T15:43:59.580Z,2.88
2023-03-12T15:46:49.120Z,3.17
2023-03-12T15:49:37.735Z,3.22
2023-03-12T15:52:23.218Z,2.90
2023-03-12T15:55:15.788Z,3.13
2023-03-12T15:58:03.785Z,4.18
2023-03-12T16:03:35.465Z,3.67
2023-03-12T16:06:25.426Z,4.70
2023-03-12T16:09:16.095Z,4.90
2023-03-12T16:12:01.276Z,4.68
2023-03-12T16:14:46.818Z,4.72
2023-03-12T16:17:32.411Z,5.57
2023-03-12T16:20:20.185Z,4.72
2023-03-12T16:25:56.372Z,4.68
2023-03-12T16:28:41.840Z,5.10
2023-03-12T16:31:27.777Z,5.10
2023-03-12T16:34:12.816Z,5.40
2023-03-12T16:36:58.036Z,5.70
2023-03-12T16:39:48.556Z,6.72
2023-03-12T16:42:37.927Z,5.97
2023-03-12T16:45:28.113Z,6.32
2023-03-12T16:48:19.762Z,5.40
2023-03-12T16:51:05.516Z,6.28
2023-03-12T16:54:05.235Z,5.03
2023-03-12T16:56:54.373Z,5.70
2023-03-12T16:59:40.465Z,5.85
2023-03-12T17:02:25.798Z,5.63
2023-03-12T17:05:12.930Z,5.65
2023-03-12T17:07:59.375Z,5.78
2023-03-12T17:10:45.013Z,6.97
2023-03-12T17:13:30.288Z,6.15
2023-03-12T17:16:15.840Z,6.43
2023-03-12T17:19:00.678Z,6.03
2023-03-12T17:21:47.669Z,6.43
2023-03-12T17:24:33.701Z,6.97
2023-03-12T17:27:20.180Z,7.60
2023-03-12T17:30:06.348Z,6.20
2023-03-12T17:32:52.436Z,6.63
2023-03-12T17:35:39.888Z,5.90
2023-03-12T17:38:26.515Z,6.35
2023-03-12T17:41:25.642Z,6.03
2023-03-12T17:44:13.644Z,6.10
2023-03-12T17:47:01.415Z,6.35
2023-03-12T17:49:47.918Z,6.32
2023-03-12T17:52:33.065Z,6.65
2023-03-12T17:55:19.194Z,6.93
2023-03-12T17:58:06.218Z,6.20
2023-03-12T18:00:51.121Z,6.35
2023-03-12T18:03:36.756Z,6.70
2023-03-12T18:06:22.224Z,6.93
2023-03-12T18:09:07.044Z,9.10
2023-03-12T18:11:53.652Z,7.93
2023-03-12T18:14:41.658Z,10.75
2023-03-12T18:20:28.787Z,8.35
2023-03-12T18:23:21.121Z,7.00
2023-03-12T18:26:07.935Z,7.13
2023-03-12T18:28:53.832Z,7.88
2023-03-12T18:31:40.365Z,7.70
2023-03-12T18:34:25.387Z,7.45
2023-03-12T18:37:13.537Z,7.25
2023-03-12T18:39:58.597Z,6.93
2023-03-12T18:42:44.381Z,7.65
2023-03-12T18:45:29.982Z,6.25
2023-03-12T18:48:15.040Z,6.68
2023-03-12T18:51:00.213Z,5.65
2023-03-12T18:53:47.777Z,5.88
2023-03-12T18:56:33.312Z,7.40
2023-03-12T18:59:18.626Z,6.65
2023-03-12T19:02:04.741Z,25.02
2023-03-12T19:04:56.011Z,10.68
2023-03-12T19:07:41.682Z,12.95
2023-03-12T19:10:28.935Z,23.02
2023-03-12T19:13:15.443Z,10.10
2023-03-12T19:16:03.111Z,15.88
2023-03-12T19:18:50.194Z,9.23
2023-03-12T19:24:48.539Z,8.43
2023-03-12T19:27:37.936Z,7.80
2023-03-12T19:30:25.810Z,7.13
2023-03-12T19:36:18.427Z,7.10
2023-03-12T19:39:20.421Z,9.88
2023-03-12T19:42:07.937Z,8.68
2023-03-12T19:44:53.485Z,8.05
2023-03-12T19:47:38.546Z,9.50
2023-03-12T19:50:25.044Z,8.73
2023-03-12T19:53:14.526Z,7.57
2023-03-12T19:56:01.201Z,12.60
2023-03-12T19:58:46.489Z,9.10
2023-03-12T20:01:33.953Z,7.95
2023-03-12T20:04:19.300Z,8.65
2023-03-12T20:07:05.364Z,9.40
2023-03-12T20:09:52.099Z,8.95
2023-03-12T20:12:38.594Z,7.85
2023-03-12T20:15:23.724Z,8.23
2023-03-12T20:18:09.303Z,10.43
2023-03-12T20:20:56.190Z,9.27
2023-03-12T20:23:41.846Z,9.80
2023-03-12T20:26:26.704Z,9.23
2023-03-12T20:29:11.704Z,9.40
2023-03-12T20:31:57.997Z,10.35
2023-03-12T20:34:42.911Z,9.35
2023-03-12T20:37:28.047Z,13.07
2023-03-12T20:40:13.677Z,9.85
2023-03-12T20:43:06.864Z,10.00
2023-03-12T20:45:52.112Z,9.75
2023-03-12T20:48:38.912Z,10.52
2023-03-12T20:51:24.799Z,10.25
2023-03-12T20:54:10.767Z,8.32
2023-03-12T20:56:57.338Z,9.38
2023-03-12T20:59:42.716Z,9.48
2023-03-12T21:02:28.078Z,9.23
2023-03-12T21:05:15.776Z,8.63
2023-03-12T21:08:01.671Z,8.15
2023-03-12T21:10:47.047Z,7.45
2023-03-12T21:13:34.508Z,8.77
2023-03-12T21:16:20.211Z,8.48
2023-03-12T21:19:05.487Z,8.82
2023-03-12T21:21:55.816Z,8.63
2023-03-12T21:24:41.086Z,8.60
2023-03-12T21:27:26.888Z,7.65
2023-03-12T21:30:12.519Z,9.63
2023-03-12T21:32:57.619Z,8.13
2023-03-12T21:35:46.329Z,8.43
2023-03-12T21:38:33.017Z,9.75
2023-03-12T21:41:19.456Z,9.25
2023-03-12T21:44:04.841Z,8.23
2023-03-12T21:46:50.045Z,8.52
2023-03-12T21:49:36.130Z,9.00
2023-03-12T21:52:22.155Z,7.85
2023-03-12T21:55:08.149Z,8.05
2023-03-12T21:57:53.102Z,6.82
2023-03-12T22:00:38.373Z,6.53
2023-03-12T22:03:23.599Z,7.32
2023-03-12T22:06:11.230Z,7.63
2023-03-12T22:08:56.533Z,8.32
2023-03-12T22:11:41.414Z,6.65
2023-03-12T22:14:26.367Z,6.47
2023-03-12T22:17:11.521Z,6.72
2023-03-12T22:19:56.645Z,5.85
2023-03-12T22:22:41.817Z,7.25
2023-03-12T22:25:27.160Z,6.15
2023-03-12T22:28:12.392Z,5.40
2023-03-12T22:31:02.639Z,6.15
2023-03-12T22:33:48.099Z,5.68
2023-03-12T22:36:33.452Z,5.82
2023-03-12T22:39:18.616Z,6.45
2023-03-12T22:42:03.901Z,5.75
2023-03-12T22:44:49.525Z,5.88
2023-03-12T22:47:35.685Z,5.25
2023-03-12T22:50:21.047Z,5.53
2023-03-12T22:53:06.261Z,5.82
2023-03-12T22:56:05.475Z,8.18
2023-03-12T22:58:50.827Z,10.05
2023-03-12T23:01:35.978Z,10.55
2023-03-12T23:04:21.385Z,9.70
2023-03-12T23:07:14.592Z,8.05
2023-03-12T23:10:03.935Z,7.57
2023-03-12T23:12:48.800Z,5.47
2023-03-12T23:15:40.739Z,5.97
2023-03-12T23:18:26.972Z,5.30
2023-03-12T23:21:15.016Z,5.07
2023-03-12T23:24:00.363Z,5.28
2023-03-12T23:26:45.952Z,4.85
2023-03-12T23:29:32.303Z,5.50
2023-03-12T23:32:17.550Z,5.25
2023-03-12T23:35:02.433Z,5.78
2023-03-12T23:37:50.515Z,5.38
2023-03-12T23:40:35.441Z,4.68
2023-03-12T23:43:20.521Z,5.72
2023-03-12T23:46:07.542Z,5.10
2023-03-12T23:48:53.865Z,5.38
2023-03-12T23:51:40.779Z,5.18
2023-03-12T23:54:25.991Z,4.22
2023-03-12T23:57:11.341Z,4.68
2023-03-12T23:59:56.163Z,4.13
